createdAt,value
2019-03-12T00:02:26.576Z,1.17
2019-03-12T00:04:53.857Z,1.75
2019-03-12T00:07:21.138Z,1.70
2019-03-12T00:09:48.431Z,2.10
2019-03-12T00:12:15.694Z,1.50
2019-03-12T00:14:42.969Z,1.52
2019-03-12T00:17:10.227Z,1.30
2019-03-12T00:19:37.501Z,1.57
2019-03-12T00:22:04.765Z,1.17
2019-03-12T00:24:32.048Z,1.30
2019-03-12T00:26:59.301Z,2.12
2019-03-12T00:29:26.589Z,1.82
2019-03-12T00:31:53.848Z,1.52
2019-03-12T00:34:21.891Z,1.57
2019-03-12T00:36:49.151Z,1.67
2019-03-12T00:39:16.409Z,1.60
2019-03-12T00:41:43.689Z,2.55
2019-03-12T00:44:10.981Z,1.80
2019-03-12T00:46:38.233Z,1.92
2019-03-12T00:49:05.505Z,2.10
2019-03-12T00:51:32.771Z,2.95
2019-03-12T00:54:00.065Z,2.20
2019-03-12T00:56:27.348Z,2.45
2019-03-12T00:58:54.633Z,3.30
2019-03-12T01:01:21.956Z,2.22
2019-03-12T01:03:49.223Z,1.87
2019-03-12T01:06:16.502Z,1.87
2019-03-12T01:08:43.766Z,2.65
2019-03-12T01:11:11.042Z,2.65
2019-03-12T01:13:38.303Z,2.55
2019-03-12T01:16:05.650Z,2.12
2019-03-12T01:18:32.901Z,2.37
2019-03-12T01:21:00.222Z,2.30
2019-03-12T01:23:27.487Z,2.58
2019-03-12T01:25:54.769Z,1.87
2019-03-12T01:28:22.049Z,2.10
2019-03-12T01:30:49.630Z,2.25
2019-03-12T01:33:17.009Z,1.77
2019-03-12T01:35:44.302Z,2.17
2019-03-12T01:38:11.739Z,2.33
2019-03-12T01:40:39.037Z,2.72
2019-03-12T01:43:06.318Z,2.90
2019-03-12T01:45:33.569Z,1.82
2019-03-12T01:48:00.845Z,2.33
2019-03-12T01:50:28.126Z,3.05
2019-03-12T01:52:55.411Z,2.42
2019-03-12T01:55:22.705Z,2.85
2019-03-12T01:57:49.997Z,2.50
2019-03-12T02:00:20.446Z,2.22
2019-03-12T02:02:47.773Z,2.22
2019-03-12T02:05:15.047Z,2.95
2019-03-12T02:07:42.301Z,2.95
2019-03-12T02:10:10.660Z,3.80
2019-03-12T02:12:37.930Z,3.37
2019-03-12T02:15:06.754Z,3.42
2019-03-12T02:17:34.006Z,2.30
2019-03-12T02:20:01.351Z,3.05
2019-03-12T02:22:28.696Z,2.77
2019-03-12T02:24:56.042Z,2.95
2019-03-12T02:27:23.318Z,3.30
2019-03-12T02:29:50.603Z,3.55
2019-03-12T02:32:17.882Z,3.22
2019-03-12T02:34:45.147Z,4.53
2019-03-12T02:37:12.431Z,3.30
2019-03-12T02:39:39.719Z,3.05
2019-03-12T02:42:07.095Z,2.87
2019-03-12T02:44:34.453Z,3.62
2019-03-12T02:47:01.710Z,3.65
2019-03-12T02:49:28.979Z,3.02
2019-03-12T02:51:56.258Z,3.60
2019-03-12T02:54:23.550Z,2.72
2019-03-12T02:56:50.804Z,2.62
2019-03-12T02:59:18.070Z,2.58
2019-03-12T03:01:45.354Z,3.20
2019-03-12T03:04:12.602Z,3.02
2019-03-12T03:06:41.522Z,3.70
2019-03-12T03:09:08.990Z,2.65
2019-03-12T03:11:36.247Z,3.67
2019-03-12T03:14:03.590Z,3.20
2019-03-12T03:16:30.947Z,3.83
2019-03-12T03:18:58.295Z,2.80
2019-03-12T03:21:25.570Z,3.00
2019-03-12T03:23:52.925Z,3.77
2019-03-12T03:26:20.205Z,2.98
2019-03-12T03:28:47.465Z,3.10
2019-03-12T03:31:14.746Z,3.00
2019-03-12T03:33:41.999Z,2.55
2019-03-12T03:36:09.287Z,4.58
2019-03-12T03:38:36.546Z,2.98
2019-03-12T03:41:03.990Z,3.30
2019-03-12T03:43:31.256Z,3.40
2019-03-12T03:45:58.798Z,3.25
2019-03-12T03:48:26.121Z,3.50
2019-03-12T03:50:53.412Z,3.67
2019-03-12T03:53:20.749Z,2.87
2019-03-12T03:55:48.130Z,3.47
2019-03-12T03:58:15.395Z,3.35
2019-03-12T04:00:42.914Z,3.45
2019-03-12T04:03:10.259Z,3.15
2019-03-12T04:05:37.701Z,3.22
2019-03-12T04:08:04.985Z,3.15
2019-03-12T04:10:32.321Z,2.87
2019-03-12T04:12:59.596Z,3.20
2019-03-12T04:15:26.887Z,3.35
2019-03-12T04:17:54.184Z,3.67
2019-03-12T04:20:21.523Z,3.87
2019-03-12T04:22:49.154Z,3.87
2019-03-12T04:25:16.458Z,2.47
2019-03-12T04:27:43.923Z,3.45
2019-03-12T04:30:12.750Z,3.37
2019-03-12T04:32:40.031Z,3.52
2019-03-12T04:35:08.893Z,3.12
2019-03-12T04:37:36.244Z,3.50
2019-03-12T04:40:05.505Z,4.20
2019-03-12T04:42:32.800Z,3.60
2019-03-12T04:45:00.177Z,3.87
2019-03-12T04:47:27.618Z,3.02
2019-03-12T04:49:54.878Z,3.87
2019-03-12T04:52:22.233Z,3.45
2019-03-12T04:54:49.483Z,3.67
2019-03-12T04:57:16.760Z,3.67
2019-03-12T04:59:44.034Z,3.92
2019-03-12T05:02:11.326Z,3.45
2019-03-12T05:04:38.629Z,2.50
2019-03-12T05:07:05.953Z,2.92
2019-03-12T05:09:33.211Z,2.72
2019-03-12T05:12:00.499Z,3.80
2019-03-12T05:14:28.831Z,3.80
2019-03-12T05:16:58.032Z,3.00
2019-03-12T05:19:26.297Z,3.12
2019-03-12T05:21:53.554Z,4.10
2019-03-12T05:24:21.026Z,2.83
2019-03-12T05:26:48.492Z,3.85
2019-03-12T05:29:15.745Z,3.65
2019-03-12T05:31:43.049Z,3.27
2019-03-12T05:34:10.378Z,4.20
2019-03-12T05:36:37.649Z,3.10
2019-03-12T05:39:05.891Z,3.08
2019-03-12T05:41:33.162Z,2.83
2019-03-12T05:44:00.427Z,2.87
2019-03-12T05:46:27.750Z,2.75
2019-03-12T05:48:55.019Z,2.67
2019-03-12T05:51:22.318Z,2.45
2019-03-12T05:53:50.375Z,2.72
2019-03-12T05:56:17.915Z,1.72
2019-03-12T05:58:45.179Z,2.50
2019-03-12T06:01:12.495Z,2.75
2019-03-12T06:03:39.788Z,3.17
2019-03-12T06:06:07.057Z,2.45
2019-03-12T06:08:34.337Z,2.47
2019-03-12T06:11:01.626Z,2.05
2019-03-12T06:13:28.882Z,2.45
2019-03-12T06:15:56.200Z,2.87
2019-03-12T06:18:23.508Z,2.55
2019-03-12T06:20:50.793Z,2.95
2019-03-12T06:23:18.086Z,3.02
2019-03-12T06:25:45.369Z,2.20
2019-03-12T06:28:12.670Z,2.20
2019-03-12T06:30:56.832Z,3.92
2019-03-12T06:33:42.311Z,2.42
2019-03-12T06:36:11.403Z,2.85
2019-03-12T06:38:45.985Z,2.60
2019-03-12T06:41:31.227Z,3.05
2019-03-12T06:44:00.136Z,2.75
2019-03-12T06:46:31.828Z,2.60
2019-03-12T06:49:01.162Z,2.33
2019-03-12T06:51:32.726Z,2.17
2019-03-12T06:54:01.699Z,2.27
2019-03-12T06:56:30.617Z,2.50
2019-03-12T06:58:59.563Z,2.90
2019-03-12T07:01:28.617Z,2.75
2019-03-12T07:04:06.208Z,2.20
2019-03-12T07:06:46.837Z,2.70
2019-03-12T07:09:24.464Z,2.00
2019-03-12T07:12:02.053Z,2.55
2019-03-12T07:14:43.038Z,2.02
2019-03-12T07:17:12.002Z,2.62
2019-03-12T07:19:55.745Z,2.42
2019-03-12T07:22:27.219Z,1.75
2019-03-12T07:25:07.970Z,2.17
2019-03-12T07:27:37.077Z,2.75
2019-03-12T07:30:27.771Z,1.95
2019-03-12T07:33:05.366Z,2.80
2019-03-12T07:35:37.091Z,3.12
2019-03-12T07:38:11.615Z,2.22
2019-03-12T07:40:56.954Z,2.52
2019-03-12T07:43:42.141Z,2.02
2019-03-12T07:46:11.066Z,1.90
2019-03-12T07:48:57.429Z,3.00
2019-03-12T07:51:42.660Z,2.62
2019-03-12T07:54:27.909Z,3.33
2019-03-12T07:57:11.895Z,2.60
2019-03-12T07:59:52.542Z,1.87
2019-03-12T08:02:33.154Z,2.70
2019-03-12T08:05:02.057Z,2.17
2019-03-12T08:07:33.556Z,2.65
2019-03-12T08:10:08.237Z,2.83
2019-03-12T08:12:48.872Z,3.02
2019-03-12T08:15:23.021Z,2.72
2019-03-12T08:17:48.397Z,2.50
2019-03-12T08:20:22.925Z,2.08
2019-03-12T08:23:08.249Z,2.05
2019-03-12T08:25:46.291Z,1.90
2019-03-12T08:28:15.226Z,2.10
2019-03-12T08:30:59.178Z,2.37
2019-03-12T08:33:28.402Z,2.98
2019-03-12T08:35:59.818Z,2.22
2019-03-12T08:38:40.284Z,2.47
2019-03-12T08:41:09.198Z,1.80
2019-03-12T08:43:56.396Z,2.80
2019-03-12T08:46:30.878Z,1.98
2019-03-12T08:48:59.776Z,2.08
2019-03-12T08:51:31.472Z,2.00
2019-03-12T08:54:00.403Z,1.73
2019-03-12T08:56:41.215Z,2.30
2019-03-12T08:59:26.487Z,2.87
2019-03-12T09:02:10.717Z,2.75
2019-03-12T09:04:54.855Z,2.80
2019-03-12T09:07:29.531Z,2.65
2019-03-12T09:10:13.584Z,2.30
2019-03-12T09:12:51.274Z,2.80
2019-03-12T09:15:20.195Z,2.42
2019-03-12T09:17:54.982Z,2.50
2019-03-12T09:20:36.165Z,2.67
2019-03-12T09:23:07.958Z,2.60
2019-03-12T09:25:42.655Z,2.77
2019-03-12T09:28:11.566Z,3.15
2019-03-12T09:33:46.190Z,2.40
2019-03-12T09:36:17.878Z,2.40
2019-03-12T09:39:03.549Z,2.37
2019-03-12T09:41:38.199Z,2.87
2019-03-12T09:44:09.815Z,2.05
2019-03-12T09:46:38.831Z,2.33
2019-03-12T09:49:27.293Z,2.22
2019-03-12T09:51:54.839Z,2.90
2019-03-12T09:54:23.763Z,2.20
2019-03-12T09:56:52.814Z,2.22
2019-03-12T09:59:33.617Z,2.25
2019-03-12T10:02:02.545Z,2.30
2019-03-12T10:04:47.812Z,2.15
2019-03-12T10:07:33.050Z,2.42
2019-03-12T10:10:10.675Z,3.20
2019-03-12T10:12:45.565Z,2.65
2019-03-12T10:15:14.683Z,2.10
2019-03-12T10:17:46.418Z,2.50
2019-03-12T10:20:31.402Z,2.72
2019-03-12T10:23:00.323Z,2.00
2019-03-12T10:25:29.246Z,2.30
2019-03-12T10:27:58.251Z,2.37
2019-03-12T10:30:27.181Z,2.33
2019-03-12T10:33:05.217Z,2.22
2019-03-12T10:35:34.125Z,1.85
2019-03-12T10:38:29.937Z,2.00
2019-03-12T10:41:04.598Z,1.70
2019-03-12T10:43:33.139Z,2.12
2019-03-12T10:46:02.064Z,2.80
2019-03-12T10:48:29.420Z,2.20
2019-03-12T10:50:56.898Z,2.37
2019-03-12T10:53:24.166Z,2.40
2019-03-12T10:55:51.444Z,2.00
2019-03-12T10:58:18.786Z,1.85
2019-03-12T11:00:46.647Z,2.52
2019-03-12T11:03:13.905Z,1.98
2019-03-12T11:05:46.255Z,2.05
2019-03-12T11:08:10.325Z,2.00
2019-03-12T11:10:37.681Z,2.52
2019-03-12T11:13:04.950Z,2.08
2019-03-12T11:15:32.290Z,2.72
2019-03-12T11:17:59.578Z,2.22
2019-03-12T11:20:27.313Z,1.75
2019-03-12T11:22:54.612Z,2.30
2019-03-12T11:25:27.211Z,1.98
2019-03-12T11:27:50.905Z,2.33
2019-03-12T11:30:18.642Z,1.98
2019-03-12T11:32:45.943Z,2.00
2019-03-12T11:35:13.269Z,2.30
2019-03-12T11:37:40.637Z,2.30
2019-03-12T11:40:18.472Z,2.65
2019-03-12T11:42:46.088Z,2.05
2019-03-12T11:45:17.109Z,2.05
2019-03-12T11:47:43.317Z,1.80
2019-03-12T11:50:12.257Z,2.02
2019-03-12T11:52:39.515Z,1.60
2019-03-12T11:55:07.517Z,2.00
2019-03-12T11:57:34.967Z,1.95
2019-03-12T12:00:02.437Z,1.87
2019-03-12T12:02:29.847Z,1.80
2019-03-12T12:04:57.329Z,1.95
2019-03-12T12:07:24.640Z,2.08
2019-03-12T12:09:51.898Z,1.82
2019-03-12T12:12:19.170Z,1.85
2019-03-12T12:14:46.441Z,1.82
2019-03-12T12:17:13.735Z,1.85
2019-03-12T12:19:41.134Z,1.67
2019-03-12T12:22:08.407Z,1.82
2019-03-12T12:24:35.774Z,1.40
2019-03-12T12:27:03.019Z,1.60
2019-03-12T12:29:30.387Z,1.90
2019-03-12T12:31:57.682Z,1.80
2019-03-12T12:34:24.948Z,1.85
2019-03-12T12:36:52.218Z,1.80
2019-03-12T12:39:19.507Z,1.92
2019-03-12T12:41:46.771Z,1.87
2019-03-12T12:44:14.037Z,2.00
2019-03-12T12:46:41.319Z,1.60
2019-03-12T12:49:08.597Z,1.60
2019-03-12T12:51:36.139Z,1.98
2019-03-12T12:54:03.751Z,1.67
2019-03-12T12:56:31.003Z,1.70
2019-03-12T12:58:58.279Z,1.55
2019-03-12T13:01:25.542Z,1.72
2019-03-12T13:03:52.831Z,1.27
2019-03-12T13:06:20.111Z,1.85
2019-03-12T13:08:47.380Z,1.45
2019-03-12T13:11:14.802Z,1.85
2019-03-12T13:13:42.085Z,1.62
2019-03-12T13:16:09.423Z,2.12
2019-03-12T13:18:36.686Z,2.10
2019-03-12T13:21:04.016Z,1.37
2019-03-12T13:23:31.285Z,2.00
2019-03-12T13:25:58.725Z,1.37
2019-03-12T13:28:26.025Z,2.10
2019-03-12T13:30:53.378Z,1.92
2019-03-12T13:33:20.674Z,1.57
2019-03-12T13:35:49.737Z,1.77
2019-03-12T13:38:17.239Z,2.35
2019-03-12T13:40:44.515Z,2.12
2019-03-12T13:43:11.858Z,1.52
2019-03-12T13:45:39.432Z,1.85
2019-03-12T13:48:06.854Z,1.90
2019-03-12T13:50:34.105Z,1.52
2019-03-12T13:53:01.402Z,1.95
2019-03-12T13:55:28.787Z,1.60
2019-03-12T13:57:56.450Z,1.70
2019-03-12T14:00:24.291Z,1.80
2019-03-12T14:02:51.614Z,1.52
2019-03-12T14:05:18.903Z,2.15
2019-03-12T14:07:46.257Z,1.98
2019-03-12T14:10:14.865Z,2.55
2019-03-12T14:12:42.358Z,1.75
2019-03-12T14:15:13.893Z,1.62
2019-03-12T14:17:41.249Z,2.00
2019-03-12T14:20:26.574Z,1.85
2019-03-12T14:22:54.047Z,2.10
2019-03-12T14:25:21.487Z,2.22
2019-03-12T14:27:48.961Z,1.87
2019-03-12T14:30:16.246Z,2.30
2019-03-12T14:32:43.521Z,2.00
2019-03-12T14:35:10.852Z,1.75
2019-03-12T14:37:38.172Z,1.60
2019-03-12T14:40:05.914Z,1.65
2019-03-12T14:42:33.214Z,2.30
2019-03-12T14:45:00.498Z,2.35
2019-03-12T14:47:27.865Z,2.50
2019-03-12T14:49:55.189Z,2.12
2019-03-12T14:52:22.465Z,2.10
2019-03-12T14:54:49.848Z,2.05
2019-03-12T14:57:17.334Z,2.27
2019-03-12T14:59:44.865Z,1.77
2019-03-12T15:02:12.654Z,2.10
2019-03-12T15:04:39.994Z,2.00
2019-03-12T15:07:07.274Z,2.20
2019-03-12T15:09:34.576Z,1.98
2019-03-12T15:12:01.850Z,1.60
2019-03-12T15:14:29.124Z,2.02
2019-03-12T15:16:56.393Z,2.05
2019-03-12T15:19:23.655Z,2.30
2019-03-12T15:21:50.938Z,2.00
2019-03-12T15:24:18.213Z,1.57
2019-03-12T15:26:45.498Z,2.02
2019-03-12T15:29:12.747Z,2.33
2019-03-12T15:31:40.032Z,1.82
2019-03-12T15:34:07.339Z,2.05
2019-03-12T15:36:34.604Z,2.30
2019-03-12T15:39:01.883Z,2.55
2019-03-12T15:41:29.141Z,1.80
2019-03-12T15:43:56.416Z,2.75
2019-03-12T15:46:23.775Z,2.50
2019-03-12T15:48:51.042Z,2.15
2019-03-12T15:51:18.424Z,1.98
2019-03-12T15:53:46.277Z,2.92
2019-03-12T15:56:13.632Z,2.15
2019-03-12T15:58:40.979Z,2.17
2019-03-12T16:01:08.350Z,2.30
2019-03-12T16:03:35.626Z,2.45
2019-03-12T16:06:03.422Z,2.30
2019-03-12T16:08:30.667Z,2.77
2019-03-12T16:10:58.720Z,2.72
2019-03-12T16:13:26.166Z,2.20
2019-03-12T16:15:53.442Z,2.02
2019-03-12T16:18:20.697Z,2.37
2019-03-12T16:20:47.974Z,1.95
2019-03-12T16:23:15.401Z,2.50
2019-03-12T16:25:42.693Z,2.37
2019-03-12T16:28:09.965Z,2.50
2019-03-12T16:30:37.261Z,2.40
2019-03-12T16:33:04.602Z,2.30
2019-03-12T16:35:31.861Z,2.77
2019-03-12T16:37:59.141Z,2.30
2019-03-12T16:40:26.399Z,2.70
2019-03-12T16:42:53.697Z,2.58
2019-03-12T16:45:21.458Z,2.12
2019-03-12T16:47:48.797Z,2.83
2019-03-12T16:50:16.705Z,2.40
2019-03-12T16:52:43.995Z,2.20
2019-03-12T16:55:11.923Z,2.08
2019-03-12T16:57:39.692Z,2.40
2019-03-12T17:00:11.536Z,2.67
2019-03-12T17:02:38.811Z,2.10
2019-03-12T17:05:06.949Z,2.42
2019-03-12T17:07:34.227Z,2.65
2019-03-12T17:10:01.558Z,2.08
2019-03-12T17:12:28.830Z,2.27
2019-03-12T17:14:56.120Z,2.20
2019-03-12T17:17:23.370Z,1.90
2019-03-12T17:19:50.661Z,2.15
2019-03-12T17:22:17.914Z,2.58
2019-03-12T17:24:45.257Z,2.40
2019-03-12T17:27:12.562Z,2.58
2019-03-12T17:29:39.922Z,2.55
2019-03-12T17:32:07.177Z,2.62
2019-03-12T17:34:36.215Z,2.55
2019-03-12T17:37:03.477Z,2.20
2019-03-12T17:39:30.878Z,1.80
2019-03-12T17:41:59.557Z,2.15
2019-03-12T17:44:26.871Z,2.58
2019-03-12T17:46:54.153Z,2.37
2019-03-12T17:49:21.418Z,3.10
2019-03-12T17:51:48.698Z,2.40
2019-03-12T17:54:15.969Z,3.12
2019-03-12T17:56:43.244Z,2.92
2019-03-12T17:59:10.501Z,2.70
2019-03-12T18:01:37.800Z,2.52
2019-03-12T18:04:05.066Z,2.72
2019-03-12T18:06:34.981Z,2.62
2019-03-12T18:09:08.556Z,2.50
2019-03-12T18:11:34.697Z,2.70
2019-03-12T18:14:02.085Z,3.00
2019-03-12T18:16:40.346Z,2.90
2019-03-12T18:18:58.424Z,2.70
2019-03-12T18:21:25.690Z,2.50
2019-03-12T18:23:52.987Z,2.50
2019-03-12T18:26:20.247Z,2.83
2019-03-12T18:28:47.643Z,2.50
2019-03-12T18:31:15.005Z,2.40
2019-03-12T18:33:42.286Z,2.60
2019-03-12T18:36:09.640Z,3.08
2019-03-12T18:38:36.927Z,2.65
2019-03-12T18:41:04.266Z,2.60
2019-03-12T18:43:31.529Z,2.90
2019-03-12T18:45:58.858Z,2.45
2019-03-12T18:48:26.231Z,2.87
2019-03-12T18:50:53.486Z,2.25
2019-03-12T18:53:20.770Z,3.40
2019-03-12T18:55:49.574Z,3.17
2019-03-12T18:58:16.950Z,3.17
2019-03-12T19:00:48.524Z,2.92
2019-03-12T19:03:14.938Z,2.80
2019-03-12T19:05:42.386Z,0.78
2019-03-12T19:08:09.830Z,0.98
2019-03-12T19:10:37.124Z,0.57
2019-03-12T19:13:04.428Z,0.95
2019-03-12T19:15:31.766Z,0.80
2019-03-12T19:17:59.036Z,0.60
2019-03-12T19:20:26.516Z,0.93
2019-03-12T19:22:53.805Z,0.80
2019-03-12T19:25:28.615Z,0.57
2019-03-12T19:28:00.182Z,0.90
2019-03-12T19:30:27.811Z,0.93
2019-03-12T19:32:59.588Z,0.70
2019-03-12T19:35:27.958Z,0.97
2019-03-12T19:37:56.097Z,0.50
2019-03-12T19:40:27.498Z,0.53
2019-03-12T19:42:54.786Z,0.70
2019-03-12T19:45:22.575Z,0.60
2019-03-12T19:47:49.992Z,0.60
2019-03-12T19:50:18.428Z,0.60
2019-03-12T19:52:46.656Z,0.50
2019-03-12T19:55:15.540Z,0.50
2019-03-12T19:57:45.681Z,0.80
2019-03-12T20:00:14.470Z,0.80
2019-03-12T20:02:42.201Z,0.70
2019-03-12T20:05:10.752Z,0.65
2019-03-12T20:07:38.030Z,0.60
2019-03-12T20:10:12.813Z,0.68
2019-03-12T20:12:53.788Z,0.90
2019-03-12T20:15:28.322Z,0.72
2019-03-12T20:17:57.130Z,0.75
2019-03-12T20:20:28.643Z,1.17
2019-03-12T20:22:57.599Z,0.90
2019-03-12T20:25:43.089Z,0.70
2019-03-12T20:28:30.276Z,1.25
2019-03-12T20:31:01.620Z,0.80
2019-03-12T20:33:42.033Z,1.35
2019-03-12T20:36:27.428Z,1.10
2019-03-12T20:39:12.659Z,0.82
2019-03-12T20:41:47.450Z,1.30
2019-03-12T20:44:18.782Z,0.80
2019-03-12T20:47:03.965Z,0.70
2019-03-12T20:49:44.742Z,0.88
2019-03-12T20:52:22.474Z,1.10
2019-03-12T20:55:00.173Z,0.75
2019-03-12T20:57:35.048Z,0.60
2019-03-12T21:00:12.393Z,0.78
2019-03-12T21:02:57.765Z,1.12
2019-03-12T21:05:35.252Z,0.72
2019-03-12T21:08:20.619Z,1.00
2019-03-12T21:10:58.435Z,1.45
2019-03-12T21:13:29.850Z,0.90
2019-03-12T21:16:15.058Z,1.35
2019-03-12T21:19:00.318Z,0.90
2019-03-12T21:21:31.586Z,0.80
2019-03-12T21:24:03.391Z,1.20
2019-03-12T21:26:35.159Z,1.65
2019-03-12T21:29:09.457Z,1.73
2019-03-12T21:31:36.713Z,1.02
2019-03-12T21:34:03.993Z,1.12
2019-03-12T21:36:31.407Z,1.37
2019-03-12T21:38:59.075Z,0.90
2019-03-12T21:41:26.403Z,1.20
2019-03-12T21:43:53.671Z,1.02
2019-03-12T21:46:21.033Z,1.00
2019-03-12T21:48:48.420Z,1.62
2019-03-12T21:51:15.857Z,0.90
2019-03-12T21:53:43.151Z,0.90
2019-03-12T21:56:10.521Z,1.12
2019-03-12T21:58:37.818Z,1.10
2019-03-12T22:01:05.364Z,0.90
2019-03-12T22:03:32.643Z,1.02
2019-03-12T22:05:59.973Z,1.17
2019-03-12T22:08:27.310Z,1.70
2019-03-12T22:10:54.913Z,0.72
2019-03-12T22:13:22.169Z,0.80
2019-03-12T22:15:49.503Z,1.20
2019-03-12T22:18:16.844Z,1.27
2019-03-12T22:20:44.102Z,1.12
2019-03-12T22:23:25.198Z,0.78
2019-03-12T22:25:55.754Z,1.27
2019-03-12T22:28:21.468Z,1.32
2019-03-12T22:30:48.742Z,1.57
2019-03-12T22:33:16.049Z,1.00
2019-03-12T22:35:43.338Z,0.80
2019-03-12T22:38:10.641Z,1.60
2019-03-12T22:40:37.920Z,1.27
2019-03-12T22:43:05.214Z,1.80
2019-03-12T22:45:32.471Z,1.60
2019-03-12T22:47:59.747Z,1.40
2019-03-12T22:50:27.030Z,1.35
2019-03-12T22:52:54.285Z,1.45
2019-03-12T22:55:21.559Z,2.20
2019-03-12T22:57:48.819Z,1.75
2019-03-12T23:00:16.737Z,1.87
2019-03-12T23:02:44.230Z,2.60
2019-03-12T23:05:11.870Z,1.62
2019-03-12T23:07:39.210Z,2.08
2019-03-12T23:10:08.044Z,1.57
2019-03-12T23:12:35.318Z,2.02
2019-03-12T23:15:02.841Z,1.87
2019-03-12T23:17:30.101Z,2.30
2019-03-12T23:19:57.432Z,2.12
2019-03-12T23:22:24.773Z,1.87
2019-03-12T23:24:52.089Z,2.22
2019-03-12T23:27:19.341Z,1.52
2019-03-12T23:29:46.775Z,1.92
2019-03-12T23:32:15.312Z,1.67
2019-03-12T23:34:42.591Z,1.70
2019-03-12T23:37:09.926Z,1.40
2019-03-12T23:39:37.214Z,1.27
2019-03-12T23:42:04.570Z,1.60
2019-03-12T23:44:31.850Z,1.45
2019-03-12T23:46:59.124Z,1.40
2019-03-12T23:49:26.783Z,1.45
2019-03-12T23:51:54.186Z,1.37
2019-03-12T23:54:21.519Z,1.45
2019-03-12T23:56:49.122Z,1.80
2019-03-12T23:59:16.455Z,1.25
